sensor_id;sensor_type;location;lat;lon;timestamp;P1;durP1;ratioP1;P2;durP2;ratioP2
8694;SDS011;65580;49.446;6.854;2024-01-15T00:08:17;45.05;;;10.18;;
8694;SDS011;65580;49.446;6.854;2024-01-15T00:13:14;46.00;;;10.20;;
8694;SDS011;65580;49.446;6.854;2024-01-15T00:17:36;53.42;;;12.40;;
8694;SDS011;65580;49.446;6.854;2024-01-15T00:26:51;47.95;;;10.05;;
8694;SDS011;65580;49.446;6.854;2024-01-15T00:31:54;42.63;;;10.38;;
8694;SDS011;65580;49.446;6.854;2024-01-15T00:36:35;47.13;;;11.32;;
8694;SDS011;65580;49.446;6.854;2024-01-15T00:41:04;53.55;;;11.13;;
8694;SDS011;65580;49.446;6.854;2024-01-15T00:45:38;47.92;;;11.38;;
8694;SDS011;65580;49.446;6.854;2024-01-15T00:49:48;42.13;;;9.98;;
8694;SDS011;65580;49.446;6.854;2024-01-15T01:13:51;46.20;;;9.90;;
8694;SDS011;65580;49.446;6.854;2024-01-15T01:18:25;47.42;;;10.77;;
8694;SDS011;65580;49.446;6.854;2024-01-15T01:22:56;41.20;;;9.05;;
8694;SDS011;65580;49.446;6.854;2024-01-15T01:32:09;49.13;;;10.68;;
8694;SDS011;65580;49.446;6.854;2024-01-15T01:41:30;43.08;;;9.50;;
8694;SDS011;65580;49.446;6.854;2024-01-15T01:46:07;40.90;;;9.52;;
8694;SDS011;65580;49.446;6.854;2024-01-15T01:50:27;43.78;;;10.10;;
8694;SDS011;65580;49.446;6.854;2024-01-15T01:55:03;46.47;;;9.75;;
8694;SDS011;65580;49.446;6.854;2024-01-15T02:00:03;47.78;;;10.88;;
8694;SDS011;65580;49.446;6.854;2024-01-15T02:09:46;45.30;;;11.05;;
8694;SDS011;65580;49.446;6.854;2024-01-15T02:14:10;47.67;;;10.77;;
8694;SDS011;65580;49.446;6.854;2024-01-15T02:18:52;50.97;;;10.07;;
8694;SDS011;65580;49.446;6.854;2024-01-15T02:23:27;40.95;;;9.85;;
8694;SDS011;65580;49.446;6.854;2024-01-15T02:28:07;50.60;;;11.45;;
8694;SDS011;65580;49.446;6.854;2024-01-15T02:32:44;45.83;;;11.10;;
8694;SDS011;65580;49.446;6.854;2024-01-15T02:37:43;44.97;;;11.20;;
8694;SDS011;65580;49.446;6.854;2024-01-15T02:42:24;46.88;;;10.27;;
8694;SDS011;65580;49.446;6.854;2024-01-15T02:46:56;43.05;;;10.30;;
8694;SDS011;65580;49.446;6.854;2024-01-15T02:51:26;44.33;;;11.88;;
8694;SDS011;65580;49.446;6.854;2024-01-15T02:55:58;47.80;;;10.77;;
8694;SDS011;65580;49.446;6.854;2024-01-15T03:09:58;45.50;;;11.77;;
8694;SDS011;65580;49.446;6.854;2024-01-15T03:14:19;37.42;;;9.88;;
8694;SDS011;65580;49.446;6.854;2024-01-15T03:19:12;36.67;;;10.77;;
8694;SDS011;65580;49.446;6.854;2024-01-15T03:24:16;47.03;;;11.90;;
8694;SDS011;65580;49.446;6.854;2024-01-15T03:33:21;49.22;;;11.95;;
8694;SDS011;65580;49.446;6.854;2024-01-15T03:37:56;39.35;;;10.30;;
8694;SDS011;65580;49.446;6.854;2024-01-15T03:42:31;53.85;;;13.13;;
8694;SDS011;65580;49.446;6.854;2024-01-15T03:51:58;50.22;;;11.40;;
8694;SDS011;65580;49.446;6.854;2024-01-15T03:56:47;44.53;;;10.68;;
8694;SDS011;65580;49.446;6.854;2024-01-15T04:01:26;40.13;;;9.75;;
8694;SDS011;65580;49.446;6.854;2024-01-15T04:15:38;46.78;;;11.25;;
8694;SDS011;65580;49.446;6.854;2024-01-15T04:20:24;57.45;;;12.57;;
8694;SDS011;65580;49.446;6.854;2024-01-15T04:25:08;45.63;;;12.10;;
8694;SDS011;65580;49.446;6.854;2024-01-15T04:34:21;51.95;;;13.05;;
8694;SDS011;65580;49.446;6.854;2024-01-15T04:39:04;46.53;;;12.23;;
8694;SDS011;65580;49.446;6.854;2024-01-15T04:43:23;47.03;;;11.50;;
8694;SDS011;65580;49.446;6.854;2024-01-15T04:47:32;46.65;;;11.88;;
8694;SDS011;65580;49.446;6.854;2024-01-15T04:52:33;50.40;;;13.18;;
8694;SDS011;65580;49.446;6.854;2024-01-15T04:57:11;41.78;;;11.43;;
8694;SDS011;65580;49.446;6.854;2024-01-15T05:01:43;43.35;;;11.80;;
8694;SDS011;65580;49.446;6.854;2024-01-15T05:06:15;51.78;;;12.77;;
8694;SDS011;65580;49.446;6.854;2024-01-15T05:15:41;46.45;;;11.52;;
8694;SDS011;65580;49.446;6.854;2024-01-15T05:20:02;47.58;;;13.43;;
8694;SDS011;65580;49.446;6.854;2024-01-15T05:30:12;40.63;;;12.35;;
8694;SDS011;65580;49.446;6.854;2024-01-15T05:54:50;56.42;;;13.02;;
8694;SDS011;65580;49.446;6.854;2024-01-15T05:58:59;48.45;;;12.73;;
8694;SDS011;65580;49.446;6.854;2024-01-15T06:03:10;52.65;;;14.48;;
8694;SDS011;65580;49.446;6.854;2024-01-15T06:12:36;55.03;;;13.15;;
8694;SDS011;65580;49.446;6.854;2024-01-15T06:16:48;49.28;;;13.32;;
8694;SDS011;65580;49.446;6.854;2024-01-15T06:30:30;56.38;;;16.60;;
8694;SDS011;65580;49.446;6.854;2024-01-15T06:35:01;52.05;;;15.02;;
8694;SDS011;65580;49.446;6.854;2024-01-15T06:39:27;48.22;;;13.52;;
8694;SDS011;65580;49.446;6.854;2024-01-15T06:43:52;53.97;;;13.93;;
8694;SDS011;65580;49.446;6.854;2024-01-15T06:48:40;47.35;;;13.73;;
8694;SDS011;65580;49.446;6.854;2024-01-15T06:53:08;46.67;;;13.63;;
8694;SDS011;65580;49.446;6.854;2024-01-15T06:58:17;47.53;;;12.73;;
8694;SDS011;65580;49.446;6.854;2024-01-15T07:08:03;47.13;;;13.05;;
8694;SDS011;65580;49.446;6.854;2024-01-15T07:12:37;42.95;;;13.35;;
8694;SDS011;65580;49.446;6.854;2024-01-15T07:17:19;54.88;;;13.90;;
8694;SDS011;65580;49.446;6.854;2024-01-15T07:21:39;53.83;;;13.82;;
8694;SDS011;65580;49.446;6.854;2024-01-15T07:26:09;54.38;;;15.15;;
8694;SDS011;65580;49.446;6.854;2024-01-15T07:35:18;53.55;;;13.80;;
8694;SDS011;65580;49.446;6.854;2024-01-15T07:54:24;53.47;;;13.73;;
8694;SDS011;65580;49.446;6.854;2024-01-15T07:58:39;56.55;;;14.13;;
8694;SDS011;65580;49.446;6.854;2024-01-15T08:07:37;52.35;;;15.45;;
8694;SDS011;65580;49.446;6.854;2024-01-15T08:12:01;50.03;;;14.52;;
8694;SDS011;65580;49.446;6.854;2024-01-15T08:16:25;44.33;;;12.18;;
8694;SDS011;65580;49.446;6.854;2024-01-15T08:20:49;57.35;;;14.07;;
8694;SDS011;65580;49.446;6.854;2024-01-15T08:50:57;47.17;;;12.98;;
8694;SDS011;65580;49.446;6.854;2024-01-15T08:55:00;66.10;;;14.95;;
8694;SDS011;65580;49.446;6.854;2024-01-15T08:59:04;59.05;;;14.35;;
8694;SDS011;65580;49.446;6.854;2024-01-15T09:03:07;56.08;;;13.93;;
8694;SDS011;65580;49.446;6.854;2024-01-15T09:07:12;49.33;;;13.48;;
8694;SDS011;65580;49.446;6.854;2024-01-15T09:11:16;41.05;;;12.88;;
8694;SDS011;65580;49.446;6.854;2024-01-15T09:15:19;44.58;;;12.55;;
8694;SDS011;65580;49.446;6.854;2024-01-15T09:19:21;37.33;;;10.65;;
8694;SDS011;65580;49.446;6.854;2024-01-15T09:23:26;41.63;;;12.00;;
8694;SDS011;65580;49.446;6.854;2024-01-15T09:27:37;42.15;;;12.23;;
8694;SDS011;65580;49.446;6.854;2024-01-15T09:31:41;37.17;;;12.40;;
8694;SDS011;65580;49.446;6.854;2024-01-15T09:35:44;43.15;;;12.50;;
8694;SDS011;65580;49.446;6.854;2024-01-15T09:39:55;41.95;;;15.13;;
8694;SDS011;65580;49.446;6.854;2024-01-15T09:43:58;67.68;;;21.05;;
8694;SDS011;65580;49.446;6.854;2024-01-15T09:48:01;69.25;;;22.13;;
8694;SDS011;65580;49.446;6.854;2024-01-15T09:52:05;38.72;;;11.65;;
8694;SDS011;65580;49.446;6.854;2024-01-15T09:56:21;33.60;;;10.25;;
8694;SDS011;65580;49.446;6.854;2024-01-15T10:00:24;39.05;;;12.18;;
8694;SDS011;65580;49.446;6.854;2024-01-15T10:04:40;14.70;;;5.85;;
8694;SDS011;65580;49.446;6.854;2024-01-15T10:08:44;36.45;;;11.50;;
8694;SDS011;65580;49.446;6.854;2024-01-15T10:12:51;34.60;;;10.15;;
8694;SDS011;65580;49.446;6.854;2024-01-15T10:20:59;38.95;;;11.32;;
8694;SDS011;65580;49.446;6.854;2024-01-15T10:25:02;27.42;;;9.52;;
8694;SDS011;65580;49.446;6.854;2024-01-15T10:29:07;33.25;;;11.57;;
8694;SDS011;65580;49.446;6.854;2024-01-15T10:33:12;47.67;;;15.10;;
8694;SDS011;65580;49.446;6.854;2024-01-15T10:37:19;39.88;;;11.68;;
8694;SDS011;65580;49.446;6.854;2024-01-15T10:41:35;34.25;;;11.80;;
8694;SDS011;65580;49.446;6.854;2024-01-15T10:50:13;31.98;;;11.75;;
8694;SDS011;65580;49.446;6.854;2024-01-15T10:54:25;31.00;;;10.27;;
8694;SDS011;65580;49.446;6.854;2024-01-15T10:58:29;29.75;;;9.63;;
8694;SDS011;65580;49.446;6.854;2024-01-15T11:02:35;30.15;;;9.88;;
8694;SDS011;65580;49.446;6.854;2024-01-15T11:06:42;24.35;;;8.90;;
8694;SDS011;65580;49.446;6.854;2024-01-15T11:10:50;25.92;;;10.27;;
8694;SDS011;65580;49.446;6.854;2024-01-15T11:15:00;25.75;;;9.60;;
8694;SDS011;65580;49.446;6.854;2024-01-15T11:19:07;19.05;;;8.07;;
8694;SDS011;65580;49.446;6.854;2024-01-15T11:23:13;24.52;;;9.95;;
8694;SDS011;65580;49.446;6.854;2024-01-15T11:27:50;27.70;;;9.13;;
8694;SDS011;65580;49.446;6.854;2024-01-15T11:31:59;24.17;;;9.25;;
8694;SDS011;65580;49.446;6.854;2024-01-15T11:36:10;32.17;;;11.45;;
8694;SDS011;65580;49.446;6.854;2024-01-15T11:40:13;26.88;;;10.23;;
8694;SDS011;65580;49.446;6.854;2024-01-15T11:44:20;21.38;;;9.70;;
8694;SDS011;65580;49.446;6.854;2024-01-15T11:48:42;23.50;;;8.70;;
8694;SDS011;65580;49.446;6.854;2024-01-15T11:52:50;24.13;;;9.27;;
8694;SDS011;65580;49.446;6.854;2024-01-15T11:57:13;20.80;;;8.32;;
8694;SDS011;65580;49.446;6.854;2024-01-15T12:10:00;20.77;;;8.63;;
8694;SDS011;65580;49.446;6.854;2024-01-15T12:14:03;23.73;;;4.78;;
8694;SDS011;65580;49.446;6.854;2024-01-15T12:18:06;26.23;;;9.63;;
8694;SDS011;65580;49.446;6.854;2024-01-15T12:22:11;18.60;;;7.72;;
8694;SDS011;65580;49.446;6.854;2024-01-15T12:26:18;15.65;;;6.68;;
8694;SDS011;65580;49.446;6.854;2024-01-15T12:30:28;20.13;;;7.35;;
8694;SDS011;65580;49.446;6.854;2024-01-15T12:34:33;21.45;;;7.47;;
8694;SDS011;65580;49.446;6.854;2024-01-15T12:38:36;18.80;;;7.50;;
8694;SDS011;65580;49.446;6.854;2024-01-15T12:42:44;14.52;;;6.10;;
8694;SDS011;65580;49.446;6.854;2024-01-15T12:46:48;16.10;;;6.55;;
8694;SDS011;65580;49.446;6.854;2024-01-15T12:50:51;20.05;;;7.72;;
8694;SDS011;65580;49.446;6.854;2024-01-15T12:54:57;16.52;;;7.32;;
8694;SDS011;65580;49.446;6.854;2024-01-15T12:59:02;16.85;;;6.95;;
8694;SDS011;65580;49.446;6.854;2024-01-15T13:07:08;15.50;;;6.95;;
8694;SDS011;65580;49.446;6.854;2024-01-15T13:11:13;18.55;;;6.88;;
8694;SDS011;65580;49.446;6.854;2024-01-15T13:19:21;18.83;;;7.25;;
8694;SDS011;65580;49.446;6.854;2024-01-15T13:23:24;14.32;;;5.45;;
8694;SDS011;65580;49.446;6.854;2024-01-15T13:27:27;16.25;;;6.18;;
8694;SDS011;65580;49.446;6.854;2024-01-15T13:31:38;11.88;;;5.07;;
8694;SDS011;65580;49.446;6.854;2024-01-15T13:35:41;16.08;;;6.13;;
8694;SDS011;65580;49.446;6.854;2024-01-15T13:39:50;16.25;;;5.78;;
8694;SDS011;65580;49.446;6.854;2024-01-15T13:43:57;16.25;;;6.30;;
8694;SDS011;65580;49.446;6.854;2024-01-15T13:48:07;9.77;;;3.72;;
8694;SDS011;65580;49.446;6.854;2024-01-15T13:52:11;20.23;;;6.80;;
8694;SDS011;65580;49.446;6.854;2024-01-15T13:56:26;15.77;;;6.53;;
8694;SDS011;65580;49.446;6.854;2024-01-15T14:00:33;14.93;;;5.47;;
8694;SDS011;65580;49.446;6.854;2024-01-15T14:04:38;16.73;;;6.75;;
8694;SDS011;65580;49.446;6.854;2024-01-15T14:08:49;13.38;;;5.15;;
8694;SDS011;65580;49.446;6.854;2024-01-15T14:17:04;15.13;;;5.45;;
8694;SDS011;65580;49.446;6.854;2024-01-15T14:21:10;18.85;;;4.53;;
8694;SDS011;65580;49.446;6.854;2024-01-15T14:25:20;10.73;;;4.70;;
8694;SDS011;65580;49.446;6.854;2024-01-15T14:29:22;12.02;;;5.00;;
8694;SDS011;65580;49.446;6.854;2024-01-15T14:33:27;12.52;;;4.75;;
8694;SDS011;65580;49.446;6.854;2024-01-15T14:37:32;11.10;;;4.88;;
8694;SDS011;65580;49.446;6.854;2024-01-15T14:41:35;10.55;;;4.90;;
8694;SDS011;65580;49.446;6.854;2024-01-15T14:45:44;10.93;;;4.72;;
8694;SDS011;65580;49.446;6.854;2024-01-15T14:49:47;9.60;;;3.97;;
8694;SDS011;65580;49.446;6.854;2024-01-15T14:53:54;10.30;;;4.35;;
8694;SDS011;65580;49.446;6.854;2024-01-15T14:57:57;12.30;;;4.38;;
8694;SDS011;65580;49.446;6.854;2024-01-15T15:02:00;9.82;;;4.18;;
8694;SDS011;65580;49.446;6.854;2024-01-15T15:06:05;11.73;;;4.07;;
8694;SDS011;65580;49.446;6.854;2024-01-15T15:10:11;10.10;;;3.78;;
8694;SDS011;65580;49.446;6.854;2024-01-15T15:14:14;10.10;;;4.47;;
8694;SDS011;65580;49.446;6.854;2024-01-15T15:18:17;11.10;;;4.88;;
8694;SDS011;65580;49.446;6.854;2024-01-15T15:22:23;13.82;;;6.00;;
8694;SDS011;65580;49.446;6.854;2024-01-15T15:26:27;11.88;;;4.85;;
8694;SDS011;65580;49.446;6.854;2024-01-15T15:30:37;10.75;;;4.03;;
8694;SDS011;65580;49.446;6.854;2024-01-15T15:34:42;12.98;;;4.45;;
8694;SDS011;65580;49.446;6.854;2024-01-15T15:38:45;11.10;;;3.78;;
8694;SDS011;65580;49.446;6.854;2024-01-15T15:42:50;8.43;;;3.90;;
8694;SDS011;65580;49.446;6.854;2024-01-15T15:46:53;13.20;;;3.85;;
8694;SDS011;65580;49.446;6.854;2024-01-15T15:50:57;6.53;;;2.72;;
8694;SDS011;65580;49.446;6.854;2024-01-15T15:55:01;12.13;;;4.15;;
8694;SDS011;65580;49.446;6.854;2024-01-15T16:03:10;10.10;;;3.80;;
8694;SDS011;65580;49.446;6.854;2024-01-15T16:07:13;9.50;;;3.40;;
8694;SDS011;65580;49.446;6.854;2024-01-15T16:11:16;9.48;;;3.33;;
8694;SDS011;65580;49.446;6.854;2024-01-15T16:15:21;5.65;;;2.80;;
8694;SDS011;65580;49.446;6.854;2024-01-15T16:19:34;11.27;;;3.70;;
8694;SDS011;65580;49.446;6.854;2024-01-15T16:23:57;8.52;;;3.10;;
8694;SDS011;65580;49.446;6.854;2024-01-15T16:28:20;8.10;;;3.65;;
8694;SDS011;65580;49.446;6.854;2024-01-15T16:32:24;10.55;;;3.72;;
8694;SDS011;65580;49.446;6.854;2024-01-15T16:40:30;5.78;;;3.08;;
8694;SDS011;65580;49.446;6.854;2024-01-15T16:44:33;6.80;;;2.90;;
8694;SDS011;65580;49.446;6.854;2024-01-15T16:48:38;6.43;;;3.08;;
8694;SDS011;65580;49.446;6.854;2024-01-15T16:52:41;8.63;;;3.10;;
8694;SDS011;65580;49.446;6.854;2024-01-15T16:56:59;9.07;;;3.20;;
8694;SDS011;65580;49.446;6.854;2024-01-15T17:01:09;9.15;;;3.22;;
8694;SDS011;65580;49.446;6.854;2024-01-15T17:05:14;11.35;;;3.63;;
8694;SDS011;65580;49.446;6.854;2024-01-15T17:09:24;10.38;;;3.17;;
8694;SDS011;65580;49.446;6.854;2024-01-15T17:13:27;7.25;;;3.05;;
8694;SDS011;65580;49.446;6.854;2024-01-15T17:17:32;5.97;;;3.00;;
8694;SDS011;65580;49.446;6.854;2024-01-15T17:21:37;6.60;;;2.95;;
8694;SDS011;65580;49.446;6.854;2024-01-15T17:25:41;8.55;;;2.83;;
8694;SDS011;65580;49.446;6.854;2024-01-15T17:33:50;10.23;;;3.38;;
8694;SDS011;65580;49.446;6.854;2024-01-15T17:37:54;14.20;;;5.03;;
8694;SDS011;65580;49.446;6.854;2024-01-15T17:41:57;8.18;;;4.10;;
8694;SDS011;65580;49.446;6.854;2024-01-15T17:46:00;6.60;;;2.80;;
8694;SDS011;65580;49.446;6.854;2024-01-15T17:50:05;5.88;;;2.85;;
8694;SDS011;65580;49.446;6.854;2024-01-15T17:54:11;7.60;;;3.22;;
8694;SDS011;65580;49.446;6.854;2024-01-15T17:58:14;12.02;;;4.78;;
8694;SDS011;65580;49.446;6.854;2024-01-15T18:02:26;9.05;;;4.20;;
8694;SDS011;65580;49.446;6.854;2024-01-15T18:06:29;7.97;;;3.10;;
8694;SDS011;65580;49.446;6.854;2024-01-15T18:10:36;7.72;;;3.35;;
8694;SDS011;65580;49.446;6.854;2024-01-15T18:14:39;7.38;;;2.90;;
8694;SDS011;65580;49.446;6.854;2024-01-15T18:18:49;5.55;;;3.00;;
8694;SDS011;65580;49.446;6.854;2024-01-15T18:23:01;5.30;;;2.60;;
8694;SDS011;65580;49.446;6.854;2024-01-15T18:27:06;4.03;;;2.25;;
8694;SDS011;65580;49.446;6.854;2024-01-15T18:31:10;11.68;;;3.17;;
8694;SDS011;65580;49.446;6.854;2024-01-15T18:35:20;8.68;;;3.03;;
8694;SDS011;65580;49.446;6.854;2024-01-15T18:39:32;6.53;;;2.42;;
8694;SDS011;65580;49.446;6.854;2024-01-15T18:47:42;8.65;;;3.00;;
8694;SDS011;65580;49.446;6.854;2024-01-15T18:51:46;6.03;;;2.67;;
8694;SDS011;65580;49.446;6.854;2024-01-15T18:55:54;11.45;;;3.05;;
8694;SDS011;65580;49.446;6.854;2024-01-15T19:00:00;8.05;;;3.58;;
8694;SDS011;65580;49.446;6.854;2024-01-15T19:04:04;5.28;;;2.65;;
8694;SDS011;65580;49.446;6.854;2024-01-15T19:08:08;8.57;;;2.67;;
8694;SDS011;65580;49.446;6.854;2024-01-15T19:12:11;8.45;;;3.35;;
8694;SDS011;65580;49.446;6.854;2024-01-15T19:16:15;7.65;;;2.78;;
8694;SDS011;65580;49.446;6.854;2024-01-15T19:20:34;5.63;;;3.22;;
8694;SDS011;65580;49.446;6.854;2024-01-15T19:24:37;7.53;;;3.10;;
8694;SDS011;65580;49.446;6.854;2024-01-15T19:28:42;6.15;;;3.55;;
8694;SDS011;65580;49.446;6.854;2024-01-15T19:32:46;7.65;;;3.42;;
8694;SDS011;65580;49.446;6.854;2024-01-15T19:40:52;9.18;;;4.90;;
8694;SDS011;65580;49.446;6.854;2024-01-15T19:44:55;9.45;;;3.88;;
8694;SDS011;65580;49.446;6.854;2024-01-15T19:53:04;7.70;;;3.95;;
8694;SDS011;65580;49.446;6.854;2024-01-15T19:57:07;6.47;;;2.95;;
8694;SDS011;65580;49.446;6.854;2024-01-15T20:05:25;9.77;;;4.03;;
8694;SDS011;65580;49.446;6.854;2024-01-15T20:09:28;13.10;;;5.18;;
8694;SDS011;65580;49.446;6.854;2024-01-15T20:13:31;16.85;;;5.38;;
8694;SDS011;65580;49.446;6.854;2024-01-15T20:17:46;11.48;;;4.55;;
8694;SDS011;65580;49.446;6.854;2024-01-15T20:21:51;8.70;;;4.22;;
8694;SDS011;65580;49.446;6.854;2024-01-15T20:25:54;7.22;;;3.30;;
8694;SDS011;65580;49.446;6.854;2024-01-15T20:29:57;9.23;;;3.40;;
8694;SDS011;65580;49.446;6.854;2024-01-15T20:33:59;11.07;;;3.53;;
8694;SDS011;65580;49.446;6.854;2024-01-15T20:38:04;10.18;;;3.70;;
8694;SDS011;65580;49.446;6.854;2024-01-15T20:42:07;11.25;;;3.88;;
8694;SDS011;65580;49.446;6.854;2024-01-15T20:46:10;7.95;;;3.80;;
8694;SDS011;65580;49.446;6.854;2024-01-15T20:50:13;11.40;;;3.90;;
8694;SDS011;65580;49.446;6.854;2024-01-15T20:54:29;5.55;;;3.38;;
8694;SDS011;65580;49.446;6.854;2024-01-15T20:58:32;7.07;;;3.17;;
8694;SDS011;65580;49.446;6.854;2024-01-15T21:02:35;8.70;;;3.67;;
8694;SDS011;65580;49.446;6.854;2024-01-15T21:06:40;8.70;;;3.25;;
8694;SDS011;65580;49.446;6.854;2024-01-15T21:10:45;8.68;;;3.47;;
8694;SDS011;65580;49.446;6.854;2024-01-15T21:14:51;15.73;;;4.57;;
8694;SDS011;65580;49.446;6.854;2024-01-15T21:18:57;13.23;;;4.13;;
8694;SDS011;65580;49.446;6.854;2024-01-15T21:23:02;8.70;;;4.07;;
8694;SDS011;65580;49.446;6.854;2024-01-15T21:27:07;9.43;;;3.58;;
8694;SDS011;65580;49.446;6.854;2024-01-15T21:31:21;11.20;;;3.85;;
8694;SDS011;65580;49.446;6.854;2024-01-15T21:35:24;9.98;;;4.00;;
8694;SDS011;65580;49.446;6.854;2024-01-15T21:39:27;8.95;;;3.75;;
8694;SDS011;65580;49.446;6.854;2024-01-15T21:43:31;10.30;;;4.75;;
8694;SDS011;65580;49.446;6.854;2024-01-15T21:47:35;9.52;;;4.15;;
8694;SDS011;65580;49.446;6.854;2024-01-15T21:51:39;9.20;;;4.13;;
8694;SDS011;65580;49.446;6.854;2024-01-15T21:55:50;12.70;;;4.13;;
8694;SDS011;65580;49.446;6.854;2024-01-15T21:59:54;8.18;;;4.22;;
8694;SDS011;65580;49.446;6.854;2024-01-15T22:03:56;12.55;;;4.53;;
8694;SDS011;65580;49.446;6.854;2024-01-15T22:07:59;10.60;;;4.03;;
8694;SDS011;65580;49.446;6.854;2024-01-15T22:12:03;11.90;;;4.85;;
8694;SDS011;65580;49.446;6.854;2024-01-15T22:16:07;7.00;;;4.15;;
8694;SDS011;65580;49.446;6.854;2024-01-15T22:20:11;14.95;;;4.38;;
8694;SDS011;65580;49.446;6.854;2024-01-15T22:24:20;12.98;;;4.03;;
8694;SDS011;65580;49.446;6.854;2024-01-15T22:28:23;7.78;;;4.10;;
8694;SDS011;65580;49.446;6.854;2024-01-15T22:32:27;12.35;;;5.05;;
8694;SDS011;65580;49.446;6.854;2024-01-15T22:36:33;12.25;;;4.60;;
8694;SDS011;65580;49.446;6.854;2024-01-15T22:44:42;8.00;;;3.90;;
8694;SDS011;65580;49.446;6.854;2024-01-15T22:53:23;10.63;;;3.65;;
8694;SDS011;65580;49.446;6.854;2024-01-15T22:57:26;12.48;;;4.30;;
8694;SDS011;65580;49.446;6.854;2024-01-15T23:01:29;8.50;;;4.15;;
8694;SDS011;65580;49.446;6.854;2024-01-15T23:05:33;11.90;;;3.65;;
8694;SDS011;65580;49.446;6.854;2024-01-15T23:09:36;8.75;;;4.38;;
8694;SDS011;65580;49.446;6.854;2024-01-15T23:13:39;11.07;;;4.18;;
8694;SDS011;65580;49.446;6.854;2024-01-15T23:17:42;9.68;;;4.57;;
8694;SDS011;65580;49.446;6.854;2024-01-15T23:21:48;6.38;;;3.25;;
8694;SDS011;65580;49.446;6.854;2024-01-15T23:25:51;10.40;;;4.40;;
8694;SDS011;65580;49.446;6.854;2024-01-15T23:29:54;12.18;;;3.83;;
8694;SDS011;65580;49.446;6.854;2024-01-15T23:33:57;9.25;;;4.18;;
8694;SDS011;65580;49.446;6.854;2024-01-15T23:38:01;12.40;;;4.30;;
8694;SDS011;65580;49.446;6.854;2024-01-15T23:42:04;14.55;;;4.75;;
8694;SDS011;65580;49.446;6.854;2024-01-15T23:46:07;16.33;;;5.35;;
8694;SDS011;65580;49.446;6.854;2024-01-15T23:50:15;15.25;;;4.80;;
8694;SDS011;65580;49.446;6.854;2024-01-15T23:54:20;12.30;;;4.78;;
8694;SDS011;65580;49.446;6.854;2024-01-15T23:58:22;11.02;;;4.50;;
